Time;durP1;ratioP1;P1;durP2;ratioP2;P2;SDS_P1;SDS_P2;PMS_P1;PMS_P2;Temp;Humidity;BMP_temperature;BMP_pressure;BME280_temperature;BME280_humidity;BME280_pressure;Samples;Min_cycle;Max_cycle;Signal;HPM_P1;HPM_P2
2021/03/15 00:00:37;;;;;;;6.85;2.70;;;6.20;99.90;;;;;;5033155;28;20223;-82
2021/03/15 00:03:04;;;;;;;7.40;3.40;;;6.10;99.90;;;;;;5035385;28;20208;-83
2021/03/15 00:05:31;;;;;;;5.25;3.05;;;6.20;99.90;;;;;;5033185;28;20257;-84
2021/03/15 00:07:58;;;;;;;5.97;3.03;;;6.40;99.90;;;;;;5031386;28;20208;-86
2021/03/15 00:10:25;;;;;;;9.65;3.20;;;6.30;99.90;;;;;;5023354;28;20218;-83
2021/03/15 00:12:52;;;;;;;5.32;3.08;;;6.10;99.90;;;;;;5036589;28;20289;-83
2021/03/15 00:15:21;;;;;;;5.95;3.45;;;6.30;99.90;;;;;;5038378;28;20310;-83
2021/03/15 00:17:48;;;;;;;5.13;3.05;;;6.10;99.90;;;;;;5035028;28;20203;-83
2021/03/15 00:20:17;;;;;;;8.23;3.40;;;6.20;99.90;;;;;;5035595;28;20214;-84
2021/03/15 00:22:46;;;;;;;5.60;2.83;;;6.20;99.90;;;;;;5035750;28;20286;-83
2021/03/15 00:25:13;;;;;;;4.93;3.13;;;6.00;99.90;;;;;;5043299;28;20225;-83
2021/03/15 00:27:40;;;;;;;8.68;2.97;;;5.90;99.90;;;;;;5051306;28;20246;-83
2021/03/15 00:30:09;;;;;;;7.43;4.20;;;6.00;99.90;;;;;;5049351;28;20271;-83
2021/03/15 00:32:36;;;;;;;5.70;3.22;;;5.90;99.90;;;;;;5043485;28;20280;-83
2021/03/15 00:35:04;;;;;;;4.80;3.20;;;6.10;99.90;;;;;;5035436;28;20676;-84
2021/03/15 00:37:30;;;;;;;6.72;3.45;;;6.20;99.90;;;;;;5032889;28;20207;-82
2021/03/15 00:39:58;;;;;;;5.97;3.22;;;6.10;99.90;;;;;;5020643;28;20209;-82
2021/03/15 00:42:24;;;;;;;5.43;3.15;;;6.10;99.90;;;;;;5036761;28;20229;-82
2021/03/15 00:44:51;;;;;;;7.22;3.20;;;6.10;99.90;;;;;;5037740;28;20246;-83
2021/03/15 00:47:17;;;;;;;6.70;3.50;;;5.90;99.90;;;;;;5037082;28;20231;-83
2021/03/15 00:49:44;;;;;;;5.45;3.25;;;5.80;99.90;;;;;;5037531;28;20207;-82
2021/03/15 00:52:10;;;;;;;5.38;3.10;;;6.00;99.90;;;;;;5039564;28;20199;-83
2021/03/15 00:54:36;;;;;;;5.80;3.88;;;5.80;99.90;;;;;;5039015;28;20273;-83
2021/03/15 00:57:04;;;;;;;5.75;3.40;;;5.90;99.90;;;;;;5040154;28;20211;-82
2021/03/15 00:59:30;;;;;;;5.88;3.70;;;5.90;99.90;;;;;;5030059;28;20268;-83
2021/03/15 01:01:57;;;;;;;5.72;3.10;;;5.80;99.90;;;;;;5040539;28;20274;-82
2021/03/15 01:04:23;;;;;;;6.13;3.70;;;5.60;99.90;;;;;;5043785;28;20430;-82
2021/03/15 01:06:50;;;;;;;7.85;3.75;;;5.60;99.90;;;;;;5041698;28;20317;-83
2021/03/15 01:09:17;;;;;;;7.90;3.80;;;5.70;99.90;;;;;;5033396;28;20294;-83
2021/03/15 01:11:43;;;;;;;8.25;3.55;;;5.70;99.90;;;;;;5035995;28;20618;-83
2021/03/15 01:14:11;;;;;;;6.53;3.50;;;5.50;99.90;;;;;;5044266;28;20580;-83
2021/03/15 01:16:37;;;;;;;7.70;4.40;;;5.70;99.90;;;;;;5046577;28;20290;-83
2021/03/15 01:19:04;;;;;;;6.32;3.38;;;5.60;99.90;;;;;;5026484;28;20211;-83
2021/03/15 01:21:31;;;;;;;6.38;3.40;;;5.50;99.90;;;;;;5019515;28;20294;-83
2021/03/15 01:23:58;;;;;;;6.35;3.15;;;5.50;99.90;;;;;;5019582;28;20306;-83
2021/03/15 01:26:24;;;;;;;6.20;3.50;;;5.70;99.90;;;;;;5019093;28;20227;-82
2021/03/15 01:28:51;;;;;;;6.78;4.05;;;5.60;99.90;;;;;;5030462;28;20202;-82
2021/03/15 01:31:18;;;;;;;4.50;3.13;;;5.50;99.90;;;;;;5041526;28;20230;-81
2021/03/15 01:33:44;;;;;;;9.20;4.05;;;5.70;99.90;;;;;;5041101;28;20294;-83
2021/03/15 01:36:11;;;;;;;6.65;4.00;;;5.50;99.90;;;;;;5037988;28;20226;-84
2021/03/15 01:38:37;;;;;;;13.27;4.10;;;5.60;99.90;;;;;;5037635;28;20234;-83
2021/03/15 01:41:04;;;;;;;6.53;3.70;;;5.40;99.90;;;;;;5028767;28;20293;-82
2021/03/15 01:43:30;;;;;;;5.80;3.60;;;5.30;99.90;;;;;;5037564;28;20294;-83
2021/03/15 01:45:56;;;;;;;8.00;3.95;;;5.40;99.90;;;;;;5030359;28;20268;-83
2021/03/15 01:48:24;;;;;;;5.40;3.42;;;5.40;99.90;;;;;;5037363;28;20211;-83
2021/03/15 01:50:50;;;;;;;11.25;3.83;;;5.10;99.90;;;;;;5036677;28;20293;-83
2021/03/15 01:53:19;;;;;;;13.57;3.70;;;5.30;99.90;;;;;;5037433;28;20211;-83
2021/03/15 01:55:46;;;;;;;7.65;3.80;;;5.30;99.90;;;;;;5021862;28;20294;-83
2021/03/15 01:58:13;;;;;;;5.38;3.50;;;5.30;99.90;;;;;;5025902;28;20200;-82
2021/03/15 02:00:40;;;;;;;10.15;4.32;;;5.10;99.90;;;;;;5040308;28;20293;-83
2021/03/15 02:03:08;;;;;;;5.63;3.80;;;5.20;99.90;;;;;;5038179;28;20214;-83
2021/03/15 02:05:36;;;;;;;9.00;3.70;;;5.10;99.90;;;;;;5036325;28;20246;-83
2021/03/15 02:08:04;;;;;;;8.82;3.40;;;5.10;99.90;;;;;;5037217;28;20245;-83
2021/03/15 02:10:31;;;;;;;10.80;4.05;;;5.20;99.90;;;;;;5037526;28;20211;-83
2021/03/15 02:13:45;;;;;;;6.20;3.58;;;5.10;99.90;;;;;;5045302;28;20231;-83
2021/03/15 02:16:16;;;;;;;7.75;4.00;;;5.00;99.90;;;;;;5027494;28;20231;-83
2021/03/15 02:18:58;;;;;;;6.57;4.20;;;5.00;99.90;;;;;;5036715;28;20286;-83
2021/03/15 02:22:01;;;;;;;5.97;3.50;;;5.00;99.90;;;;;;5036814;28;20299;-83
2021/03/15 02:24:37;;;;;;;5.85;3.70;;;4.90;99.90;;;;;;5035011;28;20234;-83
2021/03/15 02:27:40;;;;;;;7.80;3.97;;;4.90;99.90;;;;;;5031924;28;20781;-82
2021/03/15 02:30:26;;;;;;;6.90;3.83;;;5.00;99.90;;;;;;5036467;28;20242;-83
2021/03/15 02:33:45;;;;;;;6.45;4.07;;;5.00;99.90;;;;;;5037615;28;20284;-83
2021/03/15 02:36:14;;;;;;;9.20;5.07;;;4.90;99.90;;;;;;5015095;28;20677;-84
2021/03/15 02:38:46;;;;;;;7.20;4.35;;;5.00;99.90;;;;;;5015341;28;20275;-83
2021/03/15 02:41:16;;;;;;;6.93;3.95;;;4.90;99.90;;;;;;5006366;28;20294;-83
2021/03/15 02:43:46;;;;;;;6.40;4.20;;;4.90;99.90;;;;;;5038710;28;20235;-83
2021/03/15 02:46:16;;;;;;;9.35;4.65;;;4.70;99.90;;;;;;5039774;28;20246;-83
2021/03/15 02:48:44;;;;;;;9.27;3.95;;;4.90;99.90;;;;;;5050280;28;20239;-83
2021/03/15 02:51:13;;;;;;;7.07;4.03;;;4.80;99.90;;;;;;5034598;28;20203;-82
2021/03/15 02:53:41;;;;;;;9.63;5.05;;;4.70;99.90;;;;;;5041387;28;20270;-84
2021/03/15 02:56:15;;;;;;;9.10;3.92;;;4.90;99.90;;;;;;5041804;28;20238;-82
2021/03/15 02:58:43;;;;;;;9.98;3.90;;;4.90;99.90;;;;;;5037964;28;20218;-83
2021/03/15 03:01:09;;;;;;;8.07;4.15;;;4.80;99.90;;;;;;5041325;28;20199;-84
2021/03/15 03:03:37;;;;;;;8.45;4.22;;;4.60;99.90;;;;;;5046449;28;20306;-82
2021/03/15 03:06:05;;;;;;;5.35;4.03;;;4.80;99.90;;;;;;5050464;28;20231;-84
2021/03/15 03:08:34;;;;;;;9.23;4.60;;;4.60;99.90;;;;;;5049423;28;20249;-84
2021/03/15 03:11:02;;;;;;;8.60;4.88;;;4.70;99.90;;;;;;5052300;28;20716;-84
2021/03/15 03:13:30;;;;;;;17.23;6.20;;;4.60;99.90;;;;;;5068754;28;20207;-84
2021/03/15 03:15:59;;;;;;;6.47;4.25;;;4.80;99.90;;;;;;5020846;28;20230;-84
2021/03/15 03:18:26;;;;;;;9.80;4.03;;;4.50;99.90;;;;;;5029437;28;20345;-84
2021/03/15 03:20:55;;;;;;;9.38;4.50;;;4.50;99.90;;;;;;5038329;28;20242;-84
2021/03/15 03:23:23;;;;;;;11.40;4.75;;;4.40;99.90;;;;;;5038948;28;20207;-84
2021/03/15 03:25:54;;;;;;;6.03;3.45;;;4.50;99.90;;;;;;5043879;28;20303;-84
2021/03/15 03:28:21;;;;;;;8.95;3.90;;;4.50;99.90;;;;;;5048440;28;20207;-83
2021/03/15 03:30:48;;;;;;;7.10;4.13;;;4.60;99.90;;;;;;5041309;28;20246;-83
2021/03/15 03:33:15;;;;;;;7.07;4.50;;;4.60;99.90;;;;;;5035521;28;20222;-83
2021/03/15 03:35:42;;;;;;;7.43;4.13;;;4.70;99.90;;;;;;5020137;28;20705;-83
2021/03/15 03:38:09;;;;;;;9.45;4.45;;;4.80;99.90;;;;;;5016966;28;20204;-83
2021/03/15 03:40:35;;;;;;;7.90;3.88;;;4.60;99.90;;;;;;5017774;28;20226;-83
2021/03/15 03:43:03;;;;;;;9.60;4.30;;;4.80;99.90;;;;;;5023366;28;20291;-83
2021/03/15 03:45:30;;;;;;;6.32;4.05;;;4.70;99.90;;;;;;5041138;28;20692;-82
2021/03/15 03:47:57;;;;;;;6.78;4.40;;;4.90;99.90;;;;;;5044017;28;20238;-83
2021/03/15 03:50:26;;;;;;;10.88;3.47;;;4.90;99.90;;;;;;5048313;28;20209;-83
2021/03/15 03:52:56;;;;;;;9.50;3.92;;;5.10;99.90;;;;;;5057511;28;20224;-83
2021/03/15 03:55:28;;;;;;;6.78;4.00;;;5.00;99.90;;;;;;5038941;28;20242;-82
2021/03/15 03:57:57;;;;;;;10.07;3.58;;;5.00;99.90;;;;;;5020233;28;20283;-84
2021/03/15 04:00:26;;;;;;;9.30;3.85;;;5.00;99.90;;;;;;5043768;28;20643;-82
2021/03/15 04:02:55;;;;;;;5.97;3.45;;;5.40;99.90;;;;;;5036368;28;20211;-83
2021/03/15 04:05:24;;;;;;;7.97;2.78;;;5.40;99.90;;;;;;5036082;28;20314;-82
2021/03/15 04:07:56;;;;;;;5.28;2.97;;;5.20;99.90;;;;;;5034979;28;20661;-83
2021/03/15 04:10:26;;;;;;;7.28;3.60;;;5.20;99.90;;;;;;5035340;28;20274;-83
2021/03/15 04:12:57;;;;;;;7.95;2.60;;;5.30;99.90;;;;;;5035342;28;20269;-83
2021/03/15 04:15:26;;;;;;;7.85;2.97;;;5.50;99.90;;;;;;5034214;28;20310;-83
2021/03/15 04:17:53;;;;;;;4.13;2.38;;;5.20;99.90;;;;;;5034366;28;20199;-83
2021/03/15 04:20:25;;;;;;;7.03;2.90;;;5.40;99.90;;;;;;5034620;28;20230;-83
2021/03/15 04:22:55;;;;;;;6.40;2.55;;;5.40;99.90;;;;;;5035213;28;20230;-83
2021/03/15 04:25:24;;;;;;;4.55;2.40;;;5.30;99.90;;;;;;5034426;28;20265;-83
2021/03/15 04:27:51;;;;;;;5.68;2.60;;;5.50;99.90;;;;;;5035445;28;20310;-83
2021/03/15 04:30:20;;;;;;;5.68;2.65;;;5.50;99.90;;;;;;5034597;28;20322;-83
2021/03/15 04:32:52;;;;;;;4.82;2.85;;;5.50;99.90;;;;;;5034850;28;20215;-83
2021/03/15 04:35:20;;;;;;;7.55;3.13;;;5.50;99.90;;;;;;5023847;28;20224;-82
2021/03/15 04:37:49;;;;;;;4.57;2.97;;;5.50;99.90;;;;;;5014537;28;20265;-83
2021/03/15 04:40:17;;;;;;;4.40;2.47;;;5.50;99.90;;;;;;5030531;28;20243;-82
2021/03/15 04:42:44;;;;;;;5.38;2.90;;;5.50;99.90;;;;;;5040128;28;20344;-83
2021/03/15 04:45:12;;;;;;;5.18;3.30;;;5.40;99.90;;;;;;5035010;28;20239;-83
2021/03/15 04:47:39;;;;;;;6.28;2.80;;;5.50;99.90;;;;;;5034899;28;20211;-83
2021/03/15 04:50:09;;;;;;;7.00;3.53;;;5.30;99.90;;;;;;5033965;28;20242;-83
2021/03/15 04:52:37;;;;;;;5.53;2.90;;;5.40;99.90;;;;;;5035618;28;20572;-83
2021/03/15 04:55:05;;;;;;;6.13;3.08;;;5.40;99.90;;;;;;5025306;28;20235;-83
2021/03/15 04:57:33;;;;;;;6.95;3.47;;;5.50;99.90;;;;;;5015322;28;20570;-83
2021/03/15 05:00:01;;;;;;;5.80;3.22;;;5.50;99.90;;;;;;5025908;28;20309;-83
2021/03/15 05:02:29;;;;;;;6.55;2.97;;;5.50;99.90;;;;;;5034420;28;20298;-83
2021/03/15 05:04:57;;;;;;;9.05;2.80;;;5.70;99.90;;;;;;5033925;28;20718;-83
2021/03/15 05:07:25;;;;;;;5.70;2.92;;;5.70;99.90;;;;;;5035192;28;20730;-83
2021/03/15 05:09:53;;;;;;;7.40;3.22;;;5.60;99.90;;;;;;5033904;28;20290;-82
2021/03/15 05:12:20;;;;;;;7.05;3.70;;;5.60;99.90;;;;;;5034614;28;20228;-82
2021/03/15 05:14:48;;;;;;;5.68;3.40;;;5.60;99.90;;;;;;5028962;28;20251;-82
2021/03/15 05:17:14;;;;;;;6.45;2.75;;;5.60;99.90;;;;;;5015809;28;20360;-83
2021/03/15 05:19:41;;;;;;;6.50;3.00;;;5.70;99.90;;;;;;5037516;28;20243;-82
2021/03/15 05:22:08;;;;;;;6.30;3.28;;;5.60;99.90;;;;;;5040660;28;20207;-83
2021/03/15 05:24:37;;;;;;;5.05;3.00;;;5.50;99.90;;;;;;5035809;28;20292;-82
2021/03/15 05:27:05;;;;;;;10.45;3.47;;;5.50;99.90;;;;;;5034896;28;20256;-82
2021/03/15 05:29:33;;;;;;;11.82;3.28;;;5.60;99.90;;;;;;5035291;28;20223;-82
2021/03/15 05:32:01;;;;;;;6.38;2.72;;;5.70;99.90;;;;;;5035234;28;20273;-82
2021/03/15 05:34:29;;;;;;;5.47;2.78;;;5.70;99.90;;;;;;5039478;28;20288;-82
2021/03/15 05:36:58;;;;;;;12.13;3.40;;;5.40;99.90;;;;;;5034831;28;20204;-82
2021/03/15 05:39:24;;;;;;;6.80;3.60;;;5.50;99.90;;;;;;5031790;28;20239;-82
2021/03/15 05:42:11;;;;;;;5.35;2.80;;;5.70;99.90;;;;;;5035359;28;20222;-82
2021/03/15 05:44:51;;;;;;;5.55;3.13;;;5.60;99.90;;;;;;5031292;28;20216;-82
2021/03/15 05:47:48;;;;;;;5.28;2.90;;;5.60;99.90;;;;;;5014919;28;20263;-82
2021/03/15 05:50:45;;;;;;;6.57;3.30;;;5.50;99.90;;;;;;5031568;28;20325;-83
2021/03/15 05:53:22;;;;;;;6.00;2.83;;;5.80;99.90;;;;;;5021549;28;20225;-83
2021/03/15 05:56:01;;;;;;;7.18;2.85;;;5.40;99.90;;;;;;5035981;28;20381;-83
2021/03/15 05:59:17;;;;;;;6.65;3.17;;;5.40;99.90;;;;;;5052858;28;20205;-80
2021/03/15 06:02:10;;;;;;;5.68;2.88;;;5.50;99.90;;;;;;5051109;28;20203;-82
2021/03/15 06:04:45;;;;;;;7.20;2.70;;;5.40;99.90;;;;;;5039432;28;20966;-83
2021/03/15 06:07:13;;;;;;;5.15;2.63;;;5.50;99.90;;;;;;5039484;28;20226;-84
2021/03/15 06:09:45;;;;;;;4.13;2.67;;;5.60;99.90;;;;;;5041478;28;20207;-82
2021/03/15 06:12:19;;;;;;;5.95;2.88;;;5.60;99.90;;;;;;5043579;28;20207;-83
2021/03/15 06:14:48;;;;;;;4.63;2.50;;;5.50;99.90;;;;;;5055260;28;20223;-84
2021/03/15 06:17:16;;;;;;;6.50;2.70;;;5.50;99.90;;;;;;5048091;28;20254;-85
2021/03/15 06:19:43;;;;;;;7.43;3.15;;;5.40;99.90;;;;;;5049604;28;20212;-81
2021/03/15 06:22:11;;;;;;;10.27;2.75;;;5.50;99.90;;;;;;5056550;28;20267;-82
2021/03/15 06:24:38;;;;;;;6.30;3.17;;;5.60;99.90;;;;;;5054814;28;20279;-83
2021/03/15 06:27:05;;;;;;;5.28;2.90;;;5.50;99.90;;;;;;5054723;28;20610;-83
2021/03/15 06:29:32;;;;;;;5.57;2.72;;;5.50;99.90;;;;;;5050139;28;20278;-83
2021/03/15 06:32:00;;;;;;;5.25;3.20;;;5.50;99.90;;;;;;5047601;28;20243;-83
2021/03/15 06:34:29;;;;;;;5.80;2.70;;;5.40;99.90;;;;;;5050018;28;20230;-83
2021/03/15 06:36:56;;;;;;;5.47;2.83;;;5.50;99.90;;;;;;5050581;28;20743;-84
2021/03/15 06:39:23;;;;;;;7.53;2.95;;;5.50;99.90;;;;;;5050505;28;20238;-83
2021/03/15 06:41:56;;;;;;;4.68;2.88;;;5.60;99.90;;;;;;5049624;28;20286;-83
2021/03/15 06:44:22;;;;;;;8.20;2.70;;;5.50;99.90;;;;;;5046045;28;20283;-84
2021/03/15 06:46:50;;;;;;;8.10;2.95;;;5.50;99.90;;;;;;5048739;28;20239;-83
2021/03/15 06:49:18;;;;;;;4.50;2.75;;;5.70;99.90;;;;;;5044190;28;20778;-83
2021/03/15 06:52:00;;;;;;;5.07;2.80;;;5.80;99.90;;;;;;5048528;28;20218;-83
2021/03/15 06:54:28;;;;;;;4.60;2.22;;;5.50;99.90;;;;;;5052566;28;20380;-83
2021/03/15 06:57:16;;;;;;;5.43;3.10;;;5.80;99.90;;;;;;5031168;28;20214;-84
2021/03/15 06:59:53;;;;;;;6.00;2.63;;;5.80;99.90;;;;;;5045925;28;20308;-84
2021/03/15 07:02:28;;;;;;;5.00;2.35;;;5.80;99.90;;;;;;5046216;28;20207;-84
2021/03/15 07:05:06;;;;;;;6.32;2.10;;;5.80;99.90;;;;;;5026845;28;20227;-84
2021/03/15 07:07:33;;;;;;;4.45;2.15;;;5.90;99.90;;;;;;5034582;28;20274;-83
2021/03/15 07:10:00;;;;;;;4.68;1.98;;;6.00;99.90;;;;;;5044179;28;20294;-83
2021/03/15 07:12:27;;;;;;;3.58;1.70;;;6.10;99.90;;;;;;5043625;28;20222;-83
2021/03/15 07:15:05;;;;;;;3.75;2.60;;;6.00;99.90;;;;;;5043566;28;20215;-83
2021/03/15 07:17:32;;;;;;;3.00;1.40;;;6.40;99.90;;;;;;5043724;28;20635;-83
2021/03/15 07:19:59;;;;;;;3.30;1.70;;;6.00;99.90;;;;;;5035530;28;20230;-82
2021/03/15 07:22:27;;;;;;;5.10;1.70;;;6.40;99.90;;;;;;5041703;28;20207;-83
2021/03/15 07:25:08;;;;;;;3.35;1.95;;;6.30;99.90;;;;;;5037451;28;20307;-82
2021/03/15 07:27:36;;;;;;;3.50;1.70;;;6.30;99.90;;;;;;5043970;28;20249;-83
2021/03/15 07:30:27;;;;;;;3.22;1.60;;;6.40;99.90;;;;;;5061201;28;20260;-83
2021/03/15 07:32:54;;;;;;;3.40;1.80;;;6.30;99.90;;;;;;5041966;28;20286;-83
2021/03/15 07:35:23;;;;;;;3.60;1.75;;;6.20;99.90;;;;;;5048264;28;20269;-82
2021/03/15 07:37:49;;;;;;;5.00;2.20;;;6.20;99.90;;;;;;5043421;28;20218;-82
2021/03/15 07:40:34;;;;;;;4.07;1.77;;;6.20;99.90;;;;;;5047202;28;20207;-83
2021/03/15 07:43:02;;;;;;;3.25;1.67;;;5.90;99.90;;;;;;5042988;28;20207;-83
2021/03/15 07:45:30;;;;;;;3.38;1.67;;;5.90;99.90;;;;;;5034094;28;20223;-85
2021/03/15 07:48:05;;;;;;;3.40;1.27;;;5.60;99.90;;;;;;5035355;28;20253;-83
2021/03/15 07:50:34;;;;;;;5.10;1.70;;;5.70;99.90;;;;;;5042229;28;20721;-84
2021/03/15 07:53:00;;;;;;;3.35;1.40;;;5.50;99.90;;;;;;5041427;28;20250;-83
2021/03/15 07:55:34;;;;;;;2.92;1.10;;;5.70;99.90;;;;;;5040561;28;20233;-83
2021/03/15 07:58:00;;;;;;;2.40;1.05;;;5.50;99.90;;;;;;5041267;28;20229;-84
2021/03/15 08:00:28;;;;;;;3.10;1.50;;;5.70;99.90;;;;;;5040770;28;20203;-84
2021/03/15 08:02:57;;;;;;;4.32;1.55;;;5.70;99.90;;;;;;5041640;28;20253;-85
2021/03/15 08:05:24;;;;;;;4.95;1.50;;;5.60;99.90;;;;;;5040985;28;20227;-84
2021/03/15 08:07:51;;;;;;;3.95;1.80;;;5.70;99.90;;;;;;5037246;28;20640;-82
2021/03/15 08:10:18;;;;;;;3.05;1.88;;;5.90;99.90;;;;;;5035136;28;20204;-82
2021/03/15 08:12:47;;;;;;;5.18;1.70;;;5.50;99.90;;;;;;5034614;28;20512;-82
2021/03/15 08:15:14;;;;;;;3.15;1.80;;;5.90;99.90;;;;;;5034565;28;20250;-82
2021/03/15 08:17:44;;;;;;;3.05;1.80;;;5.90;99.90;;;;;;5044313;28;20268;-82
2021/03/15 08:20:11;;;;;;;4.07;1.88;;;6.00;99.90;;;;;;5015932;28;20695;-83
2021/03/15 08:22:40;;;;;;;4.47;2.05;;;6.00;99.90;;;;;;5022792;28;20207;-82
2021/03/15 08:25:09;;;;;;;3.85;1.80;;;6.30;99.90;;;;;;5031962;28;20266;-82
2021/03/15 08:27:39;;;;;;;2.65;1.23;;;6.40;99.90;;;;;;5022878;28;20318;-83
2021/03/15 08:30:09;;;;;;;3.58;1.73;;;6.20;99.90;;;;;;5036548;28;20318;-82
2021/03/15 08:32:39;;;;;;;2.75;1.35;;;6.20;99.90;;;;;;5036691;28;20577;-83
2021/03/15 08:35:07;;;;;;;3.45;1.00;;;6.50;99.90;;;;;;5034693;28;20255;-82
2021/03/15 08:37:54;;;;;;;2.65;1.15;;;6.50;99.90;;;;;;5034918;28;20203;-82
2021/03/15 08:40:50;;;;;;;4.65;2.50;;;6.60;99.90;;;;;;5037303;28;20253;-83
2021/03/15 08:43:25;;;;;;;3.30;1.30;;;6.70;99.90;;;;;;5048403;28;20211;-82
2021/03/15 08:45:54;;;;;;;4.95;1.40;;;6.80;99.90;;;;;;5027348;28;20219;-82
2021/03/15 08:48:41;;;;;;;2.83;1.45;;;6.80;99.90;;;;;;5016175;28;20265;-83
2021/03/15 08:51:10;;;;;;;3.72;1.65;;;6.80;99.90;;;;;;5036392;28;20226;-83
2021/03/15 08:53:52;;;;;;;4.15;1.60;;;6.80;99.90;;;;;;5049221;28;20223;-83
2021/03/15 08:56:43;;;;;;;3.03;1.23;;;6.80;99.90;;;;;;5049681;28;20222;-82
2021/03/15 08:59:11;;;;;;;2.88;1.30;;;7.00;99.90;;;;;;5055445;28;20200;-83
2021/03/15 09:01:51;;;;;;;3.55;1.17;;;6.80;99.90;;;;;;5035181;28;20207;-83
2021/03/15 09:04:29;;;;;;;2.83;1.35;;;7.00;99.90;;;;;;5039745;28;20348;-83
2021/03/15 09:06:59;;;;;;;3.22;1.45;;;6.60;99.90;;;;;;5042149;28;20254;-82
2021/03/15 09:09:28;;;;;;;5.05;1.30;;;6.70;99.90;;;;;;5047665;28;20245;-83
2021/03/15 09:11:56;;;;;;;2.85;1.15;;;7.00;99.90;;;;;;5053949;28;20196;-82
2021/03/15 09:14:37;;;;;;;3.70;1.33;;;7.00;99.90;;;;;;5047391;28;20223;-82
2021/03/15 09:17:33;;;;;;;3.38;1.50;;;6.90;99.90;;;;;;5042538;28;20199;-84
2021/03/15 09:20:18;;;;;;;3.55;1.38;;;7.00;99.90;;;;;;5039689;28;20199;-82
2021/03/15 09:22:46;;;;;;;3.28;1.40;;;7.00;99.90;;;;;;5043301;28;20229;-82
2021/03/15 09:25:20;;;;;;;3.38;1.40;;;7.20;99.90;;;;;;5044642;28;20211;-82
2021/03/15 09:27:51;;;;;;;2.85;1.10;;;7.10;99.90;;;;;;5052140;28;20281;-82
2021/03/15 09:30:19;;;;;;;2.63;1.27;;;7.30;99.90;;;;;;5055385;28;20195;-83
2021/03/15 09:32:48;;;;;;;3.40;1.63;;;7.10;99.90;;;;;;5073320;28;20477;-81
2021/03/15 09:35:21;;;;;;;3.60;1.10;;;7.20;99.90;;;;;;5058943;28;20219;-81
2021/03/15 09:37:51;;;;;;;3.00;1.23;;;7.20;99.90;;;;;;5046581;28;20190;-83
2021/03/15 09:40:19;;;;;;;3.30;1.40;;;7.50;99.90;;;;;;5060967;28;20205;-82
2021/03/15 09:42:46;;;;;;;3.10;1.00;;;7.50;99.90;;;;;;5052481;28;20241;-82
2021/03/15 09:45:23;;;;;;;3.03;1.33;;;7.60;99.90;;;;;;5039835;28;20223;-83
2021/03/15 09:47:49;;;;;;;4.05;1.38;;;7.60;99.90;;;;;;5040184;28;20712;-82
2021/03/15 09:50:18;;;;;;;3.08;1.15;;;7.50;99.90;;;;;;5041413;28;20289;-83
2021/03/15 09:52:44;;;;;;;3.00;1.20;;;7.60;99.90;;;;;;5053430;28;20199;-83
2021/03/15 09:55:12;;;;;;;3.10;1.30;;;7.50;99.90;;;;;;5045208;28;20753;-84
2021/03/15 09:57:39;;;;;;;3.67;1.70;;;7.50;99.90;;;;;;5045034;28;20195;-81
2021/03/15 10:00:11;;;;;;;3.47;1.23;;;7.80;99.90;;;;;;5048741;28;20202;-82
2021/03/15 10:02:39;;;;;;;3.47;1.35;;;7.50;99.90;;;;;;5058570;28;20191;-82
2021/03/15 10:05:08;;;;;;;3.10;1.40;;;7.60;99.90;;;;;;5059200;28;20227;-82
2021/03/15 10:07:40;;;;;;;4.88;1.80;;;7.80;99.90;;;;;;5057215;28;20501;-82
2021/03/15 10:10:19;;;;;;;5.87;1.90;;;7.60;99.90;;;;;;5054124;28;20200;-83
2021/03/15 10:12:49;;;;;;;9.03;5.77;;;8.20;99.90;;;;;;5056597;28;20442;-83
2021/03/15 10:15:17;;;;;;;5.50;3.00;;;8.20;99.90;;;;;;5043083;28;20505;-83
2021/03/15 10:17:48;;;;;;;3.80;2.40;;;8.50;99.90;;;;;;5037174;28;20443;-83
2021/03/15 10:20:23;;;;;;;3.30;1.80;;;8.30;99.90;;;;;;5052619;28;20193;-83
2021/03/15 10:22:49;;;;;;;8.52;3.50;;;8.40;99.90;;;;;;5055271;28;20472;-83
2021/03/15 10:25:17;;;;;;;3.47;1.80;;;8.40;99.90;;;;;;5057297;28;20299;-82
2021/03/15 10:27:55;;;;;;;3.67;1.80;;;8.30;99.90;;;;;;5053557;28;20203;-83
2021/03/15 10:30:27;;;;;;;2.90;1.30;;;8.20;99.90;;;;;;5056071;28;20450;-84
2021/03/15 10:32:54;;;;;;;3.60;1.73;;;8.20;99.90;;;;;;5057489;28;20450;-85
2021/03/15 10:35:21;;;;;;;3.50;1.17;;;8.30;99.90;;;;;;5058634;28;20488;-81
2021/03/15 10:37:51;;;;;;;3.53;1.63;;;8.30;99.90;;;;;;5058189;28;20469;-80
2021/03/15 10:40:23;;;;;;;3.90;2.10;;;8.40;99.90;;;;;;5057717;28;20765;-81
2021/03/15 10:42:50;;;;;;;3.90;1.95;;;8.50;99.90;;;;;;5057871;28;20466;-81
2021/03/15 10:45:18;;;;;;;2.72;1.40;;;8.40;99.90;;;;;;5056275;28;20211;-80
2021/03/15 10:47:44;;;;;;;3.63;1.85;;;8.50;99.90;;;;;;5056461;28;20229;-84
2021/03/15 10:50:29;;;;;;;4.03;1.40;;;8.20;99.90;;;;;;5056349;28;20226;-82
2021/03/15 10:52:56;;;;;;;4.45;2.30;;;8.40;99.90;;;;;;5055174;28;20454;-84
2021/03/15 10:55:32;;;;;;;4.50;1.90;;;8.50;99.90;;;;;;5056589;28;20223;-81
2021/03/15 10:58:04;;;;;;;3.00;1.50;;;8.50;99.90;;;;;;5053410;28;20477;-84
2021/03/15 11:00:32;;;;;;;3.77;1.70;;;8.60;99.90;;;;;;5047021;28;20257;-81
2021/03/15 11:03:02;;;;;;;3.00;1.30;;;8.70;99.90;;;;;;5048404;28;20481;-82
2021/03/15 11:05:29;;;;;;;6.78;2.38;;;8.90;99.90;;;;;;5046153;28;20501;-81
2021/03/15 11:07:55;;;;;;;3.60;1.70;;;8.80;99.90;;;;;;5045402;28;20233;-84
2021/03/15 11:10:24;;;;;;;2.53;1.17;;;8.90;99.90;;;;;;5038976;28;20522;-82
2021/03/15 11:12:53;;;;;;;3.77;1.53;;;9.30;99.90;;;;;;5038259;28;20481;-84
2021/03/15 11:15:29;;;;;;;3.20;1.30;;;9.10;99.90;;;;;;5041397;28;20452;-81
2021/03/15 11:18:17;;;;;;;5.50;1.57;;;9.00;99.90;;;;;;5026015;28;20457;-82
2021/03/15 11:20:52;;;;;;;3.10;1.50;;;9.10;99.90;;;;;;5021740;28;20459;-83
2021/03/15 11:23:31;;;;;;;3.50;1.97;;;9.10;99.90;;;;;;5029980;28;20481;-82
2021/03/15 11:26:07;;;;;;;2.70;1.30;;;9.10;99.90;;;;;;5030963;28;20521;-84
2021/03/15 11:28:36;;;;;;;2.90;1.40;;;9.30;99.90;;;;;;5028928;28;20474;-83
2021/03/15 11:31:03;;;;;;;3.03;1.20;;;8.90;99.90;;;;;;5037447;28;20592;-84
2021/03/15 11:33:30;;;;;;;5.10;2.03;;;8.90;99.90;;;;;;5039281;28;20226;-83
2021/03/15 11:35:59;;;;;;;3.90;1.90;;;9.20;99.90;;;;;;5032535;28;21027;-83
2021/03/15 11:38:26;;;;;;;2.83;1.57;;;9.10;99.90;;;;;;5034306;28;20449;-83
2021/03/15 11:40:56;;;;;;;3.37;1.67;;;9.30;99.90;;;;;;5037962;28;20575;-84
2021/03/15 11:43:24;;;;;;;3.27;1.50;;;9.00;99.90;;;;;;5041157;28;20555;-84
2021/03/15 11:45:50;;;;;;;3.00;1.60;;;9.50;99.90;;;;;;5039463;28;20470;-83
2021/03/15 11:48:17;;;;;;;3.03;1.50;;;9.50;99.90;;;;;;5037788;28;20421;-82
2021/03/15 11:50:43;;;;;;;4.77;2.13;;;9.20;99.90;;;;;;5028807;28;20433;-84
2021/03/15 11:53:11;;;;;;;2.87;1.40;;;9.50;99.90;;;;;;5037589;28;20590;-83
2021/03/15 11:55:37;;;;;;;3.73;1.70;;;9.00;99.90;;;;;;5031683;28;20510;-84
2021/03/15 11:58:04;;;;;;;3.17;1.97;;;9.40;99.90;;;;;;5017709;28;20881;-84
2021/03/15 12:00:31;;;;;;;4.07;1.80;;;9.10;99.90;;;;;;5050468;28;20449;-82
2021/03/15 12:02:57;;;;;;;3.90;2.50;;;9.10;99.90;;;;;;5056701;28;20539;-84
2021/03/15 12:05:24;;;;;;;4.10;1.83;;;9.00;99.90;;;;;;5046169;28;20247;-82
2021/03/15 12:07:51;;;;;;;3.00;1.98;;;8.70;99.90;;;;;;5046256;28;20352;-82
2021/03/15 12:10:18;;;;;;;4.05;2.13;;;8.70;99.90;;;;;;5045635;28;20211;-83
2021/03/15 12:12:45;;;;;;;2.40;0.98;;;8.60;99.90;;;;;;5042582;28;20203;-83
2021/03/15 12:15:14;;;;;;;4.10;2.40;;;8.40;99.90;;;;;;5037874;28;20216;-80
2021/03/15 12:17:43;;;;;;;8.20;3.00;;;8.60;99.90;;;;;;5034665;28;20203;-78
2021/03/15 12:20:13;;;;;;;4.17;1.50;;;8.60;99.90;;;;;;5039310;28;20970;-85
2021/03/15 12:22:39;;;;;;;4.03;2.43;;;8.70;99.90;;;;;;5054384;28;20420;-83
2021/03/15 12:25:07;;;;;;;3.90;2.27;;;8.70;99.90;;;;;;5051020;28;20462;-84
2021/03/15 12:27:34;;;;;;;3.10;1.83;;;8.60;99.90;;;;;;5042087;28;20494;-84
2021/03/15 12:30:02;;;;;;;3.67;2.43;;;8.60;99.90;;;;;;5043320;28;20362;-86
2021/03/15 12:32:28;;;;;;;3.55;2.15;;;8.50;99.90;;;;;;5041429;28;20466;-85
2021/03/15 12:34:55;;;;;;;3.37;1.93;;;8.70;99.90;;;;;;5041995;28;20714;-85
2021/03/15 12:37:22;;;;;;;3.40;1.90;;;8.70;99.90;;;;;;5050364;28;20440;-84
2021/03/15 12:39:49;;;;;;;3.30;1.97;;;8.90;99.90;;;;;;5054817;28;20454;-84
2021/03/15 12:42:17;;;;;;;4.20;2.40;;;8.70;99.90;;;;;;5051104;28;20458;-85
2021/03/15 12:44:44;;;;;;;4.83;2.60;;;8.60;99.90;;;;;;5053285;28;20480;-84
2021/03/15 12:47:10;;;;;;;3.47;2.00;;;8.50;99.90;;;;;;5041428;28;20518;-83
2021/03/15 12:49:37;;;;;;;3.88;2.47;;;8.50;99.90;;;;;;5021552;28;20259;-84
2021/03/15 12:52:05;;;;;;;2.97;1.67;;;8.90;99.90;;;;;;5017552;28;20215;-83
2021/03/15 12:54:31;;;;;;;2.90;1.67;;;8.70;99.90;;;;;;5017112;28;20482;-84
2021/03/15 12:56:58;;;;;;;3.80;2.17;;;8.70;99.90;;;;;;5029319;28;20509;-84
2021/03/15 12:59:24;;;;;;;4.17;2.30;;;8.70;99.90;;;;;;5037051;28;20482;-84
2021/03/15 13:01:51;;;;;;;3.33;1.83;;;8.90;99.90;;;;;;5037007;28;20509;-84
2021/03/15 13:04:17;;;;;;;4.55;1.70;;;8.90;99.90;;;;;;5036664;28;20831;-85
2021/03/15 13:06:44;;;;;;;4.03;1.63;;;8.80;99.90;;;;;;5042640;28;20279;-84
2021/03/15 13:09:11;;;;;;;4.70;2.10;;;8.90;99.90;;;;;;5041164;28;20218;-84
2021/03/15 13:11:37;;;;;;;3.77;2.27;;;9.00;99.90;;;;;;5048232;28;20206;-84
2021/03/15 13:14:04;;;;;;;6.78;1.83;;;8.90;99.90;;;;;;5045081;28;20496;-84